sensor_id;sensor_type;location;lat;lon;timestamp;temperature;humidity
16732;DHT22;8484;50.904;9.192;2024-02-15T00:00:06;10.30;99.90
16732;DHT22;8484;50.904;9.192;2024-02-15T00:02:52;10.30;99.90
16732;DHT22;8484;50.904;9.192;2024-02-15T00:05:38;10.30;99.90
16732;DHT22;8484;50.904;9.192;2024-02-15T00:08:23;10.20;99.90
16732;DHT22;8484;50.904;9.192;2024-02-15T00:11:12;10.30;99.90
16732;DHT22;8484;50.904;9.192;2024-02-15T00:13:58;10.30;99.90
16732;DHT22;8484;50.904;9.192;2024-02-15T00:16:45;10.30;99.90
16732;DHT22;8484;50.904;9.192;2024-02-15T00:19:31;10.40;99.90
16732;DHT22;8484;50.904;9.192;2024-02-15T00:22:16;10.40;99.90
16732;DHT22;8484;50.904;9.192;2024-02-15T00:25:02;10.40;99.90
16732;DHT22;8484;50.904;9.192;2024-02-15T00:27:50;10.40;99.90
16732;DHT22;8484;50.904;9.192;2024-02-15T00:30:35;10.40;99.90
16732;DHT22;8484;50.904;9.192;2024-02-15T00:33:21;10.30;99.90
16732;DHT22;8484;50.904;9.192;2024-02-15T00:36:07;10.40;99.90
16732;DHT22;8484;50.904;9.192;2024-02-15T00:38:52;10.50;99.90
16732;DHT22;8484;50.904;9.192;2024-02-15T00:41:38;10.50;99.90
16732;DHT22;8484;50.904;9.192;2024-02-15T00:44:27;10.40;99.90
16732;DHT22;8484;50.904;9.192;2024-02-15T00:47:12;10.40;99.90
16732;DHT22;8484;50.904;9.192;2024-02-15T00:49:58;10.40;99.90
16732;DHT22;8484;50.904;9.192;2024-02-15T00:52:43;10.40;99.90
16732;DHT22;8484;50.904;9.192;2024-02-15T00:55:29;10.40;99.90
16732;DHT22;8484;50.904;9.192;2024-02-15T00:58:15;10.50;99.90
16732;DHT22;8484;50.904;9.192;2024-02-15T01:01:01;10.80;99.90
16732;DHT22;8484;50.904;9.192;2024-02-15T01:03:47;10.30;99.90
16732;DHT22;8484;50.904;9.192;2024-02-15T01:06:32;10.30;99.90
16732;DHT22;8484;50.904;9.192;2024-02-15T01:09:18;10.30;99.90
16732;DHT22;8484;50.904;9.192;2024-02-15T01:12:04;10.30;99.90
16732;DHT22;8484;50.904;9.192;2024-02-15T01:14:50;10.20;99.90
16732;DHT22;8484;50.904;9.192;2024-02-15T01:17:37;10.20;99.90
16732;DHT22;8484;50.904;9.192;2024-02-15T01:20:22;10.20;99.90
16732;DHT22;8484;50.904;9.192;2024-02-15T01:23:08;10.20;99.90
16732;DHT22;8484;50.904;9.192;2024-02-15T01:25:53;10.20;99.90
16732;DHT22;8484;50.904;9.192;2024-02-15T01:28:39;10.20;99.90
16732;DHT22;8484;50.904;9.192;2024-02-15T01:31:27;10.20;99.90
16732;DHT22;8484;50.904;9.192;2024-02-15T01:34:14;10.20;99.90
16732;DHT22;8484;50.904;9.192;2024-02-15T01:36:59;10.30;99.90
16732;DHT22;8484;50.904;9.192;2024-02-15T01:39:45;10.30;99.90
16732;DHT22;8484;50.904;9.192;2024-02-15T01:42:31;10.30;99.90
16732;DHT22;8484;50.904;9.192;2024-02-15T01:45:16;10.40;99.90
16732;DHT22;8484;50.904;9.192;2024-02-15T01:48:02;10.30;99.90
16732;DHT22;8484;50.904;9.192;2024-02-15T01:50:49;10.30;99.90
16732;DHT22;8484;50.904;9.192;2024-02-15T01:53:35;10.20;99.90
16732;DHT22;8484;50.904;9.192;2024-02-15T01:56:22;10.10;99.90
16732;DHT22;8484;50.904;9.192;2024-02-15T01:59:10;10.20;99.90
16732;DHT22;8484;50.904;9.192;2024-02-15T02:01:56;10.30;99.90
16732;DHT22;8484;50.904;9.192;2024-02-15T02:04:42;10.20;99.90
16732;DHT22;8484;50.904;9.192;2024-02-15T02:07:28;10.20;99.90
16732;DHT22;8484;50.904;9.192;2024-02-15T02:10:14;10.30;99.90
16732;DHT22;8484;50.904;9.192;2024-02-15T02:13:01;10.30;99.90
16732;DHT22;8484;50.904;9.192;2024-02-15T02:15:46;10.30;99.90
16732;DHT22;8484;50.904;9.192;2024-02-15T02:18:32;10.30;99.90
16732;DHT22;8484;50.904;9.192;2024-02-15T02:21:18;10.30;99.90
16732;DHT22;8484;50.904;9.192;2024-02-15T02:24:12;10.30;99.90
16732;DHT22;8484;50.904;9.192;2024-02-15T02:27:00;10.20;99.90
16732;DHT22;8484;50.904;9.192;2024-02-15T02:29:45;10.20;99.90
16732;DHT22;8484;50.904;9.192;2024-02-15T02:32:32;10.20;99.90
16732;DHT22;8484;50.904;9.192;2024-02-15T02:35:18;10.20;99.90
16732;DHT22;8484;50.904;9.192;2024-02-15T02:38:04;10.20;99.90
16732;DHT22;8484;50.904;9.192;2024-02-15T02:40:50;10.50;99.90
16732;DHT22;8484;50.904;9.192;2024-02-15T02:43:37;10.20;99.90
16732;DHT22;8484;50.904;9.192;2024-02-15T02:46:22;10.20;99.90
16732;DHT22;8484;50.904;9.192;2024-02-15T02:49:08;10.30;99.90
16732;DHT22;8484;50.904;9.192;2024-02-15T02:51:54;10.30;99.90
16732;DHT22;8484;50.904;9.192;2024-02-15T02:54:46;10.40;99.90
16732;DHT22;8484;50.904;9.192;2024-02-15T02:57:32;10.30;99.90
16732;DHT22;8484;50.904;9.192;2024-02-15T03:00:19;10.70;99.90
16732;DHT22;8484;50.904;9.192;2024-02-15T03:03:05;10.20;99.90
16732;DHT22;8484;50.904;9.192;2024-02-15T03:05:51;10.20;99.90
16732;DHT22;8484;50.904;9.192;2024-02-15T03:08:37;10.30;99.90
16732;DHT22;8484;50.904;9.192;2024-02-15T03:11:23;10.80;99.90
16732;DHT22;8484;50.904;9.192;2024-02-15T03:14:09;10.30;99.90
16732;DHT22;8484;50.904;9.192;2024-02-15T03:16:56;10.30;99.90
16732;DHT22;8484;50.904;9.192;2024-02-15T03:19:42;10.40;99.90
16732;DHT22;8484;50.904;9.192;2024-02-15T03:22:28;10.30;99.90
16732;DHT22;8484;50.904;9.192;2024-02-15T03:25:15;10.30;99.90
16732;DHT22;8484;50.904;9.192;2024-02-15T03:28:00;10.30;99.90
16732;DHT22;8484;50.904;9.192;2024-02-15T03:30:48;10.30;99.90
16732;DHT22;8484;50.904;9.192;2024-02-15T03:33:35;10.30;99.90
16732;DHT22;8484;50.904;9.192;2024-02-15T03:36:21;10.30;99.90
16732;DHT22;8484;50.904;9.192;2024-02-15T03:39:07;10.30;99.90
16732;DHT22;8484;50.904;9.192;2024-02-15T03:41:53;10.30;99.90
16732;DHT22;8484;50.904;9.192;2024-02-15T03:44:39;10.20;99.90
16732;DHT22;8484;50.904;9.192;2024-02-15T03:47:25;10.20;99.90
16732;DHT22;8484;50.904;9.192;2024-02-15T03:50:14;10.20;99.90
16732;DHT22;8484;50.904;9.192;2024-02-15T03:53:00;10.30;99.90
16732;DHT22;8484;50.904;9.192;2024-02-15T03:55:45;10.30;99.90
16732;DHT22;8484;50.904;9.192;2024-02-15T03:58:31;10.30;99.90
16732;DHT22;8484;50.904;9.192;2024-02-15T04:01:17;10.30;99.90
16732;DHT22;8484;50.904;9.192;2024-02-15T04:04:02;10.30;99.90
16732;DHT22;8484;50.904;9.192;2024-02-15T04:06:50;10.30;99.90
16732;DHT22;8484;50.904;9.192;2024-02-15T04:09:35;10.60;99.90
16732;DHT22;8484;50.904;9.192;2024-02-15T04:12:21;10.30;99.90
16732;DHT22;8484;50.904;9.192;2024-02-15T04:15:07;10.30;99.90
16732;DHT22;8484;50.904;9.192;2024-02-15T04:17:55;10.30;99.90
16732;DHT22;8484;50.904;9.192;2024-02-15T04:20:43;10.30;99.90
16732;DHT22;8484;50.904;9.192;2024-02-15T04:23:32;10.30;99.90
16732;DHT22;8484;50.904;9.192;2024-02-15T04:26:17;10.30;99.90
16732;DHT22;8484;50.904;9.192;2024-02-15T04:29:04;10.30;99.90
16732;DHT22;8484;50.904;9.192;2024-02-15T04:31:51;10.30;99.90
16732;DHT22;8484;50.904;9.192;2024-02-15T04:34:38;10.40;99.90
16732;DHT22;8484;50.904;9.192;2024-02-15T04:37:24;10.30;99.90
16732;DHT22;8484;50.904;9.192;2024-02-15T04:40:14;10.30;99.90
16732;DHT22;8484;50.904;9.192;2024-02-15T04:43:06;10.30;99.90
16732;DHT22;8484;50.904;9.192;2024-02-15T04:45:52;10.30;99.90
16732;DHT22;8484;50.904;9.192;2024-02-15T04:48:38;10.30;99.90
16732;DHT22;8484;50.904;9.192;2024-02-15T04:51:25;10.40;99.90
16732;DHT22;8484;50.904;9.192;2024-02-15T04:54:11;10.30;99.90
16732;DHT22;8484;50.904;9.192;2024-02-15T04:56:59;10.20;99.90
16732;DHT22;8484;50.904;9.192;2024-02-15T04:59:45;10.30;99.90
16732;DHT22;8484;50.904;9.192;2024-02-15T05:02:32;10.30;99.90
16732;DHT22;8484;50.904;9.192;2024-02-15T05:05:20;10.20;99.90
16732;DHT22;8484;50.904;9.192;2024-02-15T05:08:15;10.20;99.90
16732;DHT22;8484;50.904;9.192;2024-02-15T05:11:01;10.10;99.90
16732;DHT22;8484;50.904;9.192;2024-02-15T05:13:49;10.10;99.90
16732;DHT22;8484;50.904;9.192;2024-02-15T05:16:35;10.10;99.90
16732;DHT22;8484;50.904;9.192;2024-02-15T05:19:32;10.10;99.90
16732;DHT22;8484;50.904;9.192;2024-02-15T05:22:25;10.10;99.90
16732;DHT22;8484;50.904;9.192;2024-02-15T05:25:12;10.20;99.90
16732;DHT22;8484;50.904;9.192;2024-02-15T05:27:59;10.30;99.90
16732;DHT22;8484;50.904;9.192;2024-02-15T05:30:46;10.40;99.90
16732;DHT22;8484;50.904;9.192;2024-02-15T05:33:32;11.00;99.90
16732;DHT22;8484;50.904;9.192;2024-02-15T05:36:19;10.20;99.90
16732;DHT22;8484;50.904;9.192;2024-02-15T05:39:05;10.20;99.90
16732;DHT22;8484;50.904;9.192;2024-02-15T05:41:51;10.20;99.90
16732;DHT22;8484;50.904;9.192;2024-02-15T05:44:37;10.20;99.90
16732;DHT22;8484;50.904;9.192;2024-02-15T05:47:24;10.30;99.90
16732;DHT22;8484;50.904;9.192;2024-02-15T05:50:09;10.30;99.90
16732;DHT22;8484;50.904;9.192;2024-02-15T05:52:56;10.30;99.90
16732;DHT22;8484;50.904;9.192;2024-02-15T05:55:42;10.20;99.90
16732;DHT22;8484;50.904;9.192;2024-02-15T05:58:28;10.30;99.90
16732;DHT22;8484;50.904;9.192;2024-02-15T06:01:14;10.30;99.90
16732;DHT22;8484;50.904;9.192;2024-02-15T06:04:01;10.30;99.90
16732;DHT22;8484;50.904;9.192;2024-02-15T06:06:49;10.60;99.90
16732;DHT22;8484;50.904;9.192;2024-02-15T06:09:34;10.30;99.90
16732;DHT22;8484;50.904;9.192;2024-02-15T06:12:21;10.30;99.90
16732;DHT22;8484;50.904;9.192;2024-02-15T06:15:07;10.30;99.90
16732;DHT22;8484;50.904;9.192;2024-02-15T06:17:59;10.30;99.90
16732;DHT22;8484;50.904;9.192;2024-02-15T06:20:46;10.30;99.90
16732;DHT22;8484;50.904;9.192;2024-02-15T06:23:33;10.30;99.90
16732;DHT22;8484;50.904;9.192;2024-02-15T06:26:20;10.30;99.90
16732;DHT22;8484;50.904;9.192;2024-02-15T06:29:05;10.30;99.90
16732;DHT22;8484;50.904;9.192;2024-02-15T06:32:08;10.80;99.90
16732;DHT22;8484;50.904;9.192;2024-02-15T06:35:11;10.30;99.90
16732;DHT22;8484;50.904;9.192;2024-02-15T06:38:19;10.20;99.90
16732;DHT22;8484;50.904;9.192;2024-02-15T06:41:22;10.60;99.90
16732;DHT22;8484;50.904;9.192;2024-02-15T06:44:08;10.30;99.90
16732;DHT22;8484;50.904;9.192;2024-02-15T06:46:53;10.90;99.90
16732;DHT22;8484;50.904;9.192;2024-02-15T06:49:39;10.30;99.90
16732;DHT22;8484;50.904;9.192;2024-02-15T06:52:25;10.30;99.90
16732;DHT22;8484;50.904;9.192;2024-02-15T06:55:12;10.30;99.90
16732;DHT22;8484;50.904;9.192;2024-02-15T06:57:59;10.20;99.90
16732;DHT22;8484;50.904;9.192;2024-02-15T07:00:45;10.30;99.90
16732;DHT22;8484;50.904;9.192;2024-02-15T07:03:30;10.30;99.90
16732;DHT22;8484;50.904;9.192;2024-02-15T07:06:16;10.30;99.90
16732;DHT22;8484;50.904;9.192;2024-02-15T07:09:02;10.40;99.90
16732;DHT22;8484;50.904;9.192;2024-02-15T07:11:49;10.30;99.90
16732;DHT22;8484;50.904;9.192;2024-02-15T07:14:35;10.70;99.90
16732;DHT22;8484;50.904;9.192;2024-02-15T07:17:23;10.40;99.90
16732;DHT22;8484;50.904;9.192;2024-02-15T07:20:11;10.60;99.90
16732;DHT22;8484;50.904;9.192;2024-02-15T07:22:58;10.40;99.90
16732;DHT22;8484;50.904;9.192;2024-02-15T07:25:44;10.40;99.90
16732;DHT22;8484;50.904;9.192;2024-02-15T07:28:34;10.40;99.90
16732;DHT22;8484;50.904;9.192;2024-02-15T07:31:21;10.60;99.90
16732;DHT22;8484;50.904;9.192;2024-02-15T07:34:06;10.30;99.90
16732;DHT22;8484;50.904;9.192;2024-02-15T07:36:52;10.40;99.90
16732;DHT22;8484;50.904;9.192;2024-02-15T07:39:38;10.50;99.90
16732;DHT22;8484;50.904;9.192;2024-02-15T07:42:24;10.50;99.90
16732;DHT22;8484;50.904;9.192;2024-02-15T07:45:12;10.50;99.90
16732;DHT22;8484;50.904;9.192;2024-02-15T07:47:57;10.50;99.90
16732;DHT22;8484;50.904;9.192;2024-02-15T07:50:43;10.50;99.90
16732;DHT22;8484;50.904;9.192;2024-02-15T07:53:34;10.60;99.90
16732;DHT22;8484;50.904;9.192;2024-02-15T07:56:20;10.60;99.90
16732;DHT22;8484;50.904;9.192;2024-02-15T07:59:06;10.70;99.90
16732;DHT22;8484;50.904;9.192;2024-02-15T08:01:53;10.60;99.90
16732;DHT22;8484;50.904;9.192;2024-02-15T08:04:38;10.60;99.90
16732;DHT22;8484;50.904;9.192;2024-02-15T08:07:25;10.60;99.90
16732;DHT22;8484;50.904;9.192;2024-02-15T08:10:16;10.70;99.90
16732;DHT22;8484;50.904;9.192;2024-02-15T08:13:01;10.70;99.90
16732;DHT22;8484;50.904;9.192;2024-02-15T08:15:47;10.60;99.90
16732;DHT22;8484;50.904;9.192;2024-02-15T08:18:38;10.60;99.90
16732;DHT22;8484;50.904;9.192;2024-02-15T08:21:28;10.60;99.90
16732;DHT22;8484;50.904;9.192;2024-02-15T08:24:13;10.60;99.90
16732;DHT22;8484;50.904;9.192;2024-02-15T08:27:18;10.60;99.90
16732;DHT22;8484;50.904;9.192;2024-02-15T08:31:08;10.70;99.90
16732;DHT22;8484;50.904;9.192;2024-02-15T08:34:23;10.60;99.90
16732;DHT22;8484;50.904;9.192;2024-02-15T08:37:24;10.50;99.90
16732;DHT22;8484;50.904;9.192;2024-02-15T08:40:10;10.70;99.90
16732;DHT22;8484;50.904;9.192;2024-02-15T08:42:56;10.80;99.90
16732;DHT22;8484;50.904;9.192;2024-02-15T08:45:41;10.90;99.90
16732;DHT22;8484;50.904;9.192;2024-02-15T08:48:27;10.90;99.90
16732;DHT22;8484;50.904;9.192;2024-02-15T08:51:16;11.00;99.90
16732;DHT22;8484;50.904;9.192;2024-02-15T08:54:02;11.00;99.90
16732;DHT22;8484;50.904;9.192;2024-02-15T08:56:47;11.00;99.90
16732;DHT22;8484;50.904;9.192;2024-02-15T08:59:33;11.00;99.90
16732;DHT22;8484;50.904;9.192;2024-02-15T09:02:18;11.00;99.90
16732;DHT22;8484;50.904;9.192;2024-02-15T09:05:04;11.00;99.90
16732;DHT22;8484;50.904;9.192;2024-02-15T09:07:51;11.00;99.90
16732;DHT22;8484;50.904;9.192;2024-02-15T09:10:37;11.00;99.90
16732;DHT22;8484;50.904;9.192;2024-02-15T09:13:23;11.00;99.90
16732;DHT22;8484;50.904;9.192;2024-02-15T09:16:09;11.00;99.90
16732;DHT22;8484;50.904;9.192;2024-02-15T09:18:56;11.00;99.90
16732;DHT22;8484;50.904;9.192;2024-02-15T09:21:44;11.10;99.90
16732;DHT22;8484;50.904;9.192;2024-02-15T09:24:31;11.10;99.90
16732;DHT22;8484;50.904;9.192;2024-02-15T09:27:17;11.10;99.90
16732;DHT22;8484;50.904;9.192;2024-02-15T09:30:04;11.30;99.90
16732;DHT22;8484;50.904;9.192;2024-02-15T09:32:52;11.20;99.90
16732;DHT22;8484;50.904;9.192;2024-02-15T09:35:37;11.30;99.90
16732;DHT22;8484;50.904;9.192;2024-02-15T09:38:23;11.50;99.90
16732;DHT22;8484;50.904;9.192;2024-02-15T09:41:10;12.30;99.90
16732;DHT22;8484;50.904;9.192;2024-02-15T09:43:57;11.50;99.90
16732;DHT22;8484;50.904;9.192;2024-02-15T09:46:43;11.50;99.90
16732;DHT22;8484;50.904;9.192;2024-02-15T09:49:30;11.50;99.90
16732;DHT22;8484;50.904;9.192;2024-02-15T09:52:15;11.50;99.90
16732;DHT22;8484;50.904;9.192;2024-02-15T09:55:03;11.50;99.90
16732;DHT22;8484;50.904;9.192;2024-02-15T09:57:50;11.50;99.90
16732;DHT22;8484;50.904;9.192;2024-02-15T10:00:36;11.50;99.90
16732;DHT22;8484;50.904;9.192;2024-02-15T10:03:22;11.50;99.90
16732;DHT22;8484;50.904;9.192;2024-02-15T10:06:10;11.60;99.90
16732;DHT22;8484;50.904;9.192;2024-02-15T10:09:27;11.60;99.90
16732;DHT22;8484;50.904;9.192;2024-02-15T10:12:13;11.60;99.90
16732;DHT22;8484;50.904;9.192;2024-02-15T10:15:00;11.60;99.90
16732;DHT22;8484;50.904;9.192;2024-02-15T10:17:54;11.70;99.90
16732;DHT22;8484;50.904;9.192;2024-02-15T10:20:41;12.00;99.90
16732;DHT22;8484;50.904;9.192;2024-02-15T10:23:28;11.70;99.90
16732;DHT22;8484;50.904;9.192;2024-02-15T10:26:20;11.70;99.90
16732;DHT22;8484;50.904;9.192;2024-02-15T10:29:08;11.80;99.90
16732;DHT22;8484;50.904;9.192;2024-02-15T10:31:57;12.00;99.90
16732;DHT22;8484;50.904;9.192;2024-02-15T10:34:46;12.10;99.90
16732;DHT22;8484;50.904;9.192;2024-02-15T10:37:32;12.20;99.90
16732;DHT22;8484;50.904;9.192;2024-02-15T10:40:18;12.20;99.90
16732;DHT22;8484;50.904;9.192;2024-02-15T10:43:04;12.20;99.90
16732;DHT22;8484;50.904;9.192;2024-02-15T10:45:51;12.30;99.90
16732;DHT22;8484;50.904;9.192;2024-02-15T10:48:39;12.40;99.90
16732;DHT22;8484;50.904;9.192;2024-02-15T10:51:24;12.50;99.90
16732;DHT22;8484;50.904;9.192;2024-02-15T10:54:13;12.60;99.90
16732;DHT22;8484;50.904;9.192;2024-02-15T10:57:04;12.70;99.90
16732;DHT22;8484;50.904;9.192;2024-02-15T10:59:55;12.80;99.90
16732;DHT22;8484;50.904;9.192;2024-02-15T11:02:49;12.90;99.90
16732;DHT22;8484;50.904;9.192;2024-02-15T11:05:37;13.40;99.90
16732;DHT22;8484;50.904;9.192;2024-02-15T11:08:23;13.00;99.90
16732;DHT22;8484;50.904;9.192;2024-02-15T11:11:09;13.30;99.90
16732;DHT22;8484;50.904;9.192;2024-02-15T11:14:22;12.90;99.90
16732;DHT22;8484;50.904;9.192;2024-02-15T11:17:08;13.10;99.90
16732;DHT22;8484;50.904;9.192;2024-02-15T11:19:57;13.10;99.90
16732;DHT22;8484;50.904;9.192;2024-02-15T11:22:56;13.50;99.90
16732;DHT22;8484;50.904;9.192;2024-02-15T11:25:42;13.50;99.90
16732;DHT22;8484;50.904;9.192;2024-02-15T11:28:39;14.10;99.90
16732;DHT22;8484;50.904;9.192;2024-02-15T11:31:52;13.10;99.90
16732;DHT22;8484;50.904;9.192;2024-02-15T11:34:45;13.00;99.90
16732;DHT22;8484;50.904;9.192;2024-02-15T11:37:57;12.60;99.90
16732;DHT22;8484;50.904;9.192;2024-02-15T11:41:03;13.10;99.90
16732;DHT22;8484;50.904;9.192;2024-02-15T11:43:57;13.10;99.90
16732;DHT22;8484;50.904;9.192;2024-02-15T11:46:52;13.20;99.90
16732;DHT22;8484;50.904;9.192;2024-02-15T11:49:41;14.00;99.90
16732;DHT22;8484;50.904;9.192;2024-02-15T11:52:27;13.30;99.90
16732;DHT22;8484;50.904;9.192;2024-02-15T11:55:14;14.00;99.90
16732;DHT22;8484;50.904;9.192;2024-02-15T11:58:03;13.80;99.90
16732;DHT22;8484;50.904;9.192;2024-02-15T12:01:01;13.20;99.90
16732;DHT22;8484;50.904;9.192;2024-02-15T12:04:04;13.20;99.90
16732;DHT22;8484;50.904;9.192;2024-02-15T12:07:07;13.20;99.90
16732;DHT22;8484;50.904;9.192;2024-02-15T12:10:16;13.20;99.90
16732;DHT22;8484;50.904;9.192;2024-02-15T12:13:20;13.30;99.90
16732;DHT22;8484;50.904;9.192;2024-02-15T12:16:23;13.30;99.90
16732;DHT22;8484;50.904;9.192;2024-02-15T12:19:27;13.50;99.90
16732;DHT22;8484;50.904;9.192;2024-02-15T12:22:12;13.60;99.90
16732;DHT22;8484;50.904;9.192;2024-02-15T12:24:59;13.70;99.90
16732;DHT22;8484;50.904;9.192;2024-02-15T12:27:52;13.80;99.90
16732;DHT22;8484;50.904;9.192;2024-02-15T12:30:38;13.70;99.90
16732;DHT22;8484;50.904;9.192;2024-02-15T12:33:25;13.80;99.90
16732;DHT22;8484;50.904;9.192;2024-02-15T12:36:11;13.70;99.90
16732;DHT22;8484;50.904;9.192;2024-02-15T12:39:01;13.70;99.90
16732;DHT22;8484;50.904;9.192;2024-02-15T12:41:48;13.60;99.90
16732;DHT22;8484;50.904;9.192;2024-02-15T12:44:46;13.60;99.90
16732;DHT22;8484;50.904;9.192;2024-02-15T12:47:32;13.50;99.90
16732;DHT22;8484;50.904;9.192;2024-02-15T12:50:19;13.50;99.90
16732;DHT22;8484;50.904;9.192;2024-02-15T12:53:05;13.40;99.90
16732;DHT22;8484;50.904;9.192;2024-02-15T12:55:55;13.50;99.90
16732;DHT22;8484;50.904;9.192;2024-02-15T12:58:41;13.50;99.90
16732;DHT22;8484;50.904;9.192;2024-02-15T13:01:29;13.30;99.90
16732;DHT22;8484;50.904;9.192;2024-02-15T13:04:23;13.70;99.90
16732;DHT22;8484;50.904;9.192;2024-02-15T13:07:09;13.70;99.90
16732;DHT22;8484;50.904;9.192;2024-02-15T13:09:55;13.10;99.90
16732;DHT22;8484;50.904;9.192;2024-02-15T13:12:40;13.10;99.90
16732;DHT22;8484;50.904;9.192;2024-02-15T13:15:28;13.10;99.90
16732;DHT22;8484;50.904;9.192;2024-02-15T13:18:18;13.10;99.90
16732;DHT22;8484;50.904;9.192;2024-02-15T13:21:04;13.60;99.90
16732;DHT22;8484;50.904;9.192;2024-02-15T13:23:50;13.10;99.90
16732;DHT22;8484;50.904;9.192;2024-02-15T13:26:36;13.10;99.90
16732;DHT22;8484;50.904;9.192;2024-02-15T13:29:22;14.60;99.90
16732;DHT22;8484;50.904;9.192;2024-02-15T13:32:09;13.00;99.90
16732;DHT22;8484;50.904;9.192;2024-02-15T13:34:58;13.00;99.90
16732;DHT22;8484;50.904;9.192;2024-02-15T13:37:52;13.60;99.90
16732;DHT22;8484;50.904;9.192;2024-02-15T13:40:38;13.10;99.90
16732;DHT22;8484;50.904;9.192;2024-02-15T13:43:23;13.20;99.90
16732;DHT22;8484;50.904;9.192;2024-02-15T13:46:09;13.10;99.90
16732;DHT22;8484;50.904;9.192;2024-02-15T13:48:55;13.20;99.90
16732;DHT22;8484;50.904;9.192;2024-02-15T13:51:43;13.30;99.90
16732;DHT22;8484;50.904;9.192;2024-02-15T13:54:29;13.30;99.90
16732;DHT22;8484;50.904;9.192;2024-02-15T13:57:14;13.30;99.90
16732;DHT22;8484;50.904;9.192;2024-02-15T14:00:01;13.30;99.90
16732;DHT22;8484;50.904;9.192;2024-02-15T14:02:47;13.30;99.90
16732;DHT22;8484;50.904;9.192;2024-02-15T14:05:33;13.40;99.90
16732;DHT22;8484;50.904;9.192;2024-02-15T14:08:20;13.30;99.90
16732;DHT22;8484;50.904;9.192;2024-02-15T14:11:07;14.70;99.90
16732;DHT22;8484;50.904;9.192;2024-02-15T14:13:53;13.20;99.90
16732;DHT22;8484;50.904;9.192;2024-02-15T14:16:45;13.20;99.90
16732;DHT22;8484;50.904;9.192;2024-02-15T14:19:31;13.30;99.90
16732;DHT22;8484;50.904;9.192;2024-02-15T14:22:17;13.30;99.90
16732;DHT22;8484;50.904;9.192;2024-02-15T14:25:05;13.20;99.90
16732;DHT22;8484;50.904;9.192;2024-02-15T14:27:56;13.20;99.90
16732;DHT22;8484;50.904;9.192;2024-02-15T14:30:48;13.50;99.90
16732;DHT22;8484;50.904;9.192;2024-02-15T14:33:51;13.30;99.90
16732;DHT22;8484;50.904;9.192;2024-02-15T14:36:37;13.30;99.90
16732;DHT22;8484;50.904;9.192;2024-02-15T14:39:22;13.30;99.90
16732;DHT22;8484;50.904;9.192;2024-02-15T14:42:10;13.80;99.90
16732;DHT22;8484;50.904;9.192;2024-02-15T14:44:56;13.40;99.90
16732;DHT22;8484;50.904;9.192;2024-02-15T14:47:42;13.40;99.90
16732;DHT22;8484;50.904;9.192;2024-02-15T14:50:27;13.40;99.90
16732;DHT22;8484;50.904;9.192;2024-02-15T14:53:13;13.40;99.90
16732;DHT22;8484;50.904;9.192;2024-02-15T14:56:00;13.80;99.90
16732;DHT22;8484;50.904;9.192;2024-02-15T14:58:50;13.30;99.90
16732;DHT22;8484;50.904;9.192;2024-02-15T15:01:36;13.30;99.90
16732;DHT22;8484;50.904;9.192;2024-02-15T15:04:22;13.20;99.90
16732;DHT22;8484;50.904;9.192;2024-02-15T15:07:08;13.30;99.90
16732;DHT22;8484;50.904;9.192;2024-02-15T15:10:11;13.20;99.90
16732;DHT22;8484;50.904;9.192;2024-02-15T15:13:10;13.20;99.90
16732;DHT22;8484;50.904;9.192;2024-02-15T15:15:59;13.20;99.90
16732;DHT22;8484;50.904;9.192;2024-02-15T15:18:46;13.20;99.90
16732;DHT22;8484;50.904;9.192;2024-02-15T15:21:31;13.10;99.90
16732;DHT22;8484;50.904;9.192;2024-02-15T15:24:16;13.10;99.90
16732;DHT22;8484;50.904;9.192;2024-02-15T15:27:03;13.00;99.90
16732;DHT22;8484;50.904;9.192;2024-02-15T15:29:50;13.00;99.90
16732;DHT22;8484;50.904;9.192;2024-02-15T15:32:37;13.00;99.90
16732;DHT22;8484;50.904;9.192;2024-02-15T15:35:26;13.00;99.90
16732;DHT22;8484;50.904;9.192;2024-02-15T15:38:12;13.00;99.90
16732;DHT22;8484;50.904;9.192;2024-02-15T15:40:57;13.30;99.90
16732;DHT22;8484;50.904;9.192;2024-02-15T15:43:43;13.00;99.90
16732;DHT22;8484;50.904;9.192;2024-02-15T15:46:30;12.90;99.90
16732;DHT22;8484;50.904;9.192;2024-02-15T15:49:18;12.90;99.90
16732;DHT22;8484;50.904;9.192;2024-02-15T15:52:05;13.20;99.90
16732;DHT22;8484;50.904;9.192;2024-02-15T15:54:51;12.80;99.90
16732;DHT22;8484;50.904;9.192;2024-02-15T15:57:37;12.70;99.90
16732;DHT22;8484;50.904;9.192;2024-02-15T16:00:24;12.70;99.90
16732;DHT22;8484;50.904;9.192;2024-02-15T16:03:09;12.60;99.90
16732;DHT22;8484;50.904;9.192;2024-02-15T16:05:56;12.60;99.90
16732;DHT22;8484;50.904;9.192;2024-02-15T16:08:41;12.40;99.90
16732;DHT22;8484;50.904;9.192;2024-02-15T16:11:28;12.30;99.90
16732;DHT22;8484;50.904;9.192;2024-02-15T16:14:13;12.20;99.90
16732;DHT22;8484;50.904;9.192;2024-02-15T16:16:59;12.10;99.90
16732;DHT22;8484;50.904;9.192;2024-02-15T16:19:45;12.10;99.90
16732;DHT22;8484;50.904;9.192;2024-02-15T16:22:32;12.10;99.90
16732;DHT22;8484;50.904;9.192;2024-02-15T16:25:17;12.00;99.90
16732;DHT22;8484;50.904;9.192;2024-02-15T16:28:03;12.10;99.90
16732;DHT22;8484;50.904;9.192;2024-02-15T16:30:50;12.00;99.90
16732;DHT22;8484;50.904;9.192;2024-02-15T16:33:36;12.00;99.90
16732;DHT22;8484;50.904;9.192;2024-02-15T16:36:21;12.00;99.90
16732;DHT22;8484;50.904;9.192;2024-02-15T16:39:09;12.00;99.90
16732;DHT22;8484;50.904;9.192;2024-02-15T16:41:56;12.60;99.90
16732;DHT22;8484;50.904;9.192;2024-02-15T16:44:41;12.10;99.90
16732;DHT22;8484;50.904;9.192;2024-02-15T16:47:31;12.00;99.90
16732;DHT22;8484;50.904;9.192;2024-02-15T16:50:17;11.90;99.90
16732;DHT22;8484;50.904;9.192;2024-02-15T16:53:03;11.90;99.90
16732;DHT22;8484;50.904;9.192;2024-02-15T16:55:50;12.00;99.90
16732;DHT22;8484;50.904;9.192;2024-02-15T16:58:38;12.30;99.90
16732;DHT22;8484;50.904;9.192;2024-02-15T17:01:23;12.60;99.90
16732;DHT22;8484;50.904;9.192;2024-02-15T17:04:09;12.60;99.90
16732;DHT22;8484;50.904;9.192;2024-02-15T17:07:00;12.60;99.90
16732;DHT22;8484;50.904;9.192;2024-02-15T17:09:45;12.20;99.90
16732;DHT22;8484;50.904;9.192;2024-02-15T17:12:32;12.10;99.90
16732;DHT22;8484;50.904;9.192;2024-02-15T17:15:18;12.10;99.90
16732;DHT22;8484;50.904;9.192;2024-02-15T17:18:09;12.10;99.90
16732;DHT22;8484;50.904;9.192;2024-02-15T17:20:55;12.00;99.90
16732;DHT22;8484;50.904;9.192;2024-02-15T17:23:41;12.10;99.90
16732;DHT22;8484;50.904;9.192;2024-02-15T17:26:30;12.00;99.90
16732;DHT22;8484;50.904;9.192;2024-02-15T17:29:17;12.10;99.90
16732;DHT22;8484;50.904;9.192;2024-02-15T17:32:03;12.10;99.90
16732;DHT22;8484;50.904;9.192;2024-02-15T17:34:48;12.00;99.90
16732;DHT22;8484;50.904;9.192;2024-02-15T17:37:34;12.00;99.90
16732;DHT22;8484;50.904;9.192;2024-02-15T17:40:19;12.10;99.90
16732;DHT22;8484;50.904;9.192;2024-02-15T17:43:05;12.10;99.90
16732;DHT22;8484;50.904;9.192;2024-02-15T17:45:53;12.10;99.90
16732;DHT22;8484;50.904;9.192;2024-02-15T17:48:39;11.90;99.90
16732;DHT22;8484;50.904;9.192;2024-02-15T17:51:26;12.30;99.90
16732;DHT22;8484;50.904;9.192;2024-02-15T17:54:11;12.20;99.90
16732;DHT22;8484;50.904;9.192;2024-02-15T17:56:57;11.70;99.90